createdAt,value
2018-07-12T00:03:02.100Z,-59
2018-07-12T00:13:01.670Z,-59
2018-07-12T00:23:01.584Z,-58
2018-07-12T00:33:01.633Z,-58
2018-07-12T00:43:01.684Z,-58
2018-07-12T00:53:01.619Z,-57
2018-07-12T01:03:01.710Z,-58
2018-07-12T01:13:01.664Z,-58
2018-07-12T01:23:01.648Z,-58
2018-07-12T01:33:01.644Z,-57
2018-07-12T01:43:01.674Z,-58
2018-07-12T01:53:01.606Z,-55
2018-07-12T02:03:01.565Z,-57
2018-07-12T02:13:01.626Z,-57
2018-07-12T02:23:01.719Z,-55
2018-07-12T02:33:01.654Z,-55
2018-07-12T02:43:01.667Z,-55
2018-07-12T02:53:01.725Z,-57
2018-07-12T03:03:02.313Z,-56
2018-07-12T03:13:01.614Z,-57
2018-07-12T03:23:01.674Z,-53
2018-07-12T03:33:01.633Z,-56
2018-07-12T03:43:01.584Z,-57
2018-07-12T03:53:01.679Z,-55
2018-07-12T04:03:01.617Z,-57
2018-07-12T04:13:01.698Z,-57
2018-07-12T04:23:01.665Z,-56
2018-07-12T04:33:01.710Z,-58
2018-07-12T04:43:01.614Z,-56
2018-07-12T04:53:01.743Z,-56
2018-07-12T05:03:01.733Z,-57
2018-07-12T05:13:01.819Z,-58
2018-07-12T05:23:01.734Z,-57
2018-07-12T05:33:01.694Z,-57
2018-07-12T05:43:01.729Z,-57
2018-07-12T05:53:01.740Z,-56
2018-07-12T06:03:01.859Z,-56
2018-07-12T06:13:01.733Z,-56
2018-07-12T06:23:01.730Z,-58
2018-07-12T06:33:02.313Z,-65
2018-07-12T06:43:01.815Z,-70
2018-07-12T06:53:01.926Z,-68
2018-07-12T07:03:01.721Z,-69
2018-07-12T07:13:01.707Z,-60
2018-07-12T07:23:01.719Z,-60
2018-07-12T07:33:01.721Z,-59
2018-07-12T07:43:02.236Z,-59
2018-07-12T07:53:03.210Z,-61
2018-07-12T08:03:01.751Z,-60
2018-07-12T08:13:01.884Z,-60
2018-07-12T08:23:01.730Z,-61
2018-07-12T08:33:01.950Z,-61
2018-07-12T08:43:01.760Z,-59
2018-07-12T08:53:02.138Z,-60
2018-07-12T09:03:01.916Z,-61
2018-07-12T09:13:01.738Z,-60
2018-07-12T09:23:01.834Z,-59
2018-07-12T09:33:01.813Z,-59
2018-07-12T09:43:01.814Z,-59
2018-07-12T09:53:01.795Z,-58
2018-07-12T10:03:01.838Z,-59
2018-07-12T10:13:01.798Z,-58
2018-07-12T10:23:01.753Z,-58
2018-07-12T10:33:01.771Z,-59
2018-07-12T10:43:01.750Z,-59
2018-07-12T10:53:01.837Z,-59
2018-07-12T11:03:01.763Z,-58
2018-07-12T11:13:01.888Z,-59
2018-07-12T11:23:01.773Z,-57
2018-07-12T11:33:01.848Z,-59
2018-07-12T11:43:01.905Z,-60
2018-07-12T11:53:02.003Z,-58
2018-07-12T12:03:02.033Z,-60
2018-07-12T12:13:02.041Z,-59
2018-07-12T12:23:01.904Z,-59
2018-07-12T12:33:02.175Z,-57
2018-07-12T12:43:02.028Z,-59
2018-07-12T12:53:01.870Z,-58
2018-07-12T13:03:01.905Z,-60
2018-07-12T13:13:02.542Z,-60
2018-07-12T13:23:01.854Z,-59
2018-07-12T13:33:01.971Z,-58
2018-07-12T13:43:01.896Z,-59
2018-07-12T13:53:02.975Z,-59
2018-07-12T14:03:01.893Z,-60
2018-07-12T14:13:02.015Z,-53
2018-07-12T14:23:02.993Z,-56
2018-07-12T14:33:04.388Z,-56
2018-07-12T14:43:03.862Z,-56
2018-07-12T14:53:01.833Z,-57
2018-07-12T15:03:01.891Z,-56
2018-07-12T15:13:03.963Z,-55
2018-07-12T15:23:02.896Z,-56
2018-07-12T15:33:03.006Z,-56
2018-07-12T15:43:01.938Z,-58
2018-07-12T15:53:01.916Z,-56
2018-07-12T16:03:01.843Z,-55
2018-07-12T16:13:01.869Z,-55
2018-07-12T16:23:01.945Z,-54
2018-07-12T16:33:04.014Z,-56
2018-07-12T16:43:02.439Z,-56
2018-07-12T16:53:03.242Z,-57
2018-07-12T17:03:03.108Z,-55
2018-07-12T17:13:01.906Z,-56
2018-07-12T17:23:01.900Z,-55
2018-07-12T17:33:01.952Z,-57
2018-07-12T17:43:01.924Z,-55
2018-07-12T17:53:01.940Z,-56
2018-07-12T18:03:02.059Z,-56
2018-07-12T18:13:01.913Z,-56
2018-07-12T18:23:01.959Z,-56
2018-07-12T18:33:02.116Z,-56
2018-07-12T18:43:02.019Z,-54
2018-07-12T18:53:02.144Z,-55
2018-07-12T19:03:02.244Z,-56
2018-07-12T19:13:01.900Z,-57
2018-07-12T19:23:01.924Z,-56
2018-07-12T19:33:02.099Z,-56
2018-07-12T19:43:02.193Z,-57
2018-07-12T19:53:01.973Z,-55
2018-07-12T20:03:01.972Z,-57
2018-07-12T20:13:02.945Z,-56
2018-07-12T20:23:02.082Z,-57
2018-07-12T20:33:02.363Z,-55
2018-07-12T20:43:02.286Z,-56
2018-07-12T20:53:02.285Z,-56
2018-07-12T21:03:02.604Z,-56
2018-07-12T21:13:03.255Z,-56
2018-07-12T21:23:02.599Z,-56
2018-07-12T21:33:02.147Z,-56
2018-07-12T21:43:02.238Z,-55
2018-07-12T21:53:01.944Z,-55
2018-07-12T22:03:02.254Z,-56
2018-07-12T22:13:01.915Z,-53
2018-07-12T22:23:02.118Z,-56
2018-07-12T22:33:02.228Z,-55
2018-07-12T22:43:02.193Z,-57
2018-07-12T22:53:01.858Z,-55
2018-07-12T23:03:01.914Z,-55
2018-07-12T23:13:02.285Z,-57
2018-07-12T23:23:02.124Z,-57
2018-07-12T23:33:02.440Z,-55
2018-07-12T23:43:01.902Z,-55
2018-07-12T23:53:01.904Z,-54
